createdAt,value
2018-02-19T00:00:55.260Z,57.75
2018-02-19T00:03:35.710Z,57.50
2018-02-19T00:08:55.344Z,58.75
2018-02-19T00:11:28.878Z,49.75
2018-02-19T00:13:59.913Z,54.25
2018-02-19T00:16:33.471Z,63.00
2018-02-19T00:19:07.276Z,49.50
2018-02-19T00:21:40.669Z,49.00
2018-02-19T00:24:14.666Z,55.00
2018-02-19T00:26:49.588Z,58.25
2018-02-19T00:29:23.869Z,59.00
2018-02-19T00:31:57.615Z,57.25
2018-02-19T00:34:35.613Z,60.50
2018-02-19T00:37:17.816Z,54.25
2018-02-19T00:39:52.826Z,61.00
2018-02-19T00:42:28.383Z,57.00
2018-02-19T00:45:05.509Z,58.00
2018-02-19T00:47:39.980Z,57.75
2018-02-19T00:50:33.906Z,56.50
2018-02-19T00:53:15.057Z,61.00
2018-02-19T00:55:49.726Z,60.00
2018-02-19T00:58:30.159Z,56.75
2018-02-19T01:01:09.345Z,58.50
2018-02-19T01:03:40.002Z,59.25
2018-02-19T01:06:18.505Z,63.25
2018-02-19T01:08:58.327Z,60.75
2018-02-19T01:11:29.781Z,55.75
2018-02-19T01:16:52.196Z,59.00
2018-02-19T01:19:26.493Z,55.50
2018-02-19T01:21:58.402Z,59.25
2018-02-19T01:28:02.246Z,61.25
2018-02-19T01:30:35.035Z,61.00
2018-02-19T01:33:05.621Z,59.75
2018-02-19T01:35:36.464Z,60.50
2018-02-19T01:38:10.020Z,58.25
2018-02-19T01:40:45.320Z,58.25
2018-02-19T01:43:25.521Z,57.75
2018-02-19T01:46:00.026Z,60.25
2018-02-19T01:48:40.161Z,59.75
2018-02-19T01:51:29.494Z,62.75
2018-02-19T01:53:59.938Z,59.50
2018-02-19T01:56:30.465Z,64.00
2018-02-19T01:59:00.738Z,57.25
2018-02-19T02:01:31.153Z,60.25
2018-02-19T02:04:01.725Z,61.75
2018-02-19T02:06:31.951Z,62.75
2018-02-19T02:09:02.788Z,64.00
2018-02-19T02:11:33.141Z,61.50
2018-02-19T02:14:03.841Z,58.25
2018-02-19T02:16:34.417Z,62.00
2018-02-19T02:19:04.821Z,61.75
2018-02-19T02:21:35.581Z,59.25
2018-02-19T02:24:05.902Z,60.50
2018-02-19T02:26:36.294Z,60.00
2018-02-19T02:29:06.924Z,67.25
2018-02-19T02:31:40.260Z,63.00
2018-02-19T02:34:11.082Z,61.00
2018-02-19T02:36:42.164Z,65.50
2018-02-19T02:39:13.559Z,65.25
2018-02-19T02:41:43.730Z,64.25
2018-02-19T02:44:14.062Z,64.00
2018-02-19T02:46:45.697Z,65.75
2018-02-19T02:49:17.684Z,65.25
2018-02-19T02:51:48.014Z,63.50
2018-02-19T02:54:19.703Z,63.00
2018-02-19T02:56:50.698Z,68.00
2018-02-19T02:59:20.894Z,64.75
2018-02-19T03:04:48.610Z,61.50
2018-02-19T03:07:19.617Z,63.75
2018-02-19T03:09:51.010Z,62.50
2018-02-19T03:12:21.742Z,70.50
2018-02-19T03:14:52.063Z,65.75
2018-02-19T03:17:22.366Z,66.00
2018-02-19T03:19:52.826Z,65.75
2018-02-19T03:22:23.227Z,63.00
2018-02-19T03:24:53.733Z,62.50
2018-02-19T03:27:24.171Z,65.00
2018-02-19T03:29:54.999Z,63.50
2018-02-19T03:32:25.308Z,60.50
2018-02-19T03:34:55.717Z,65.00
2018-02-19T03:37:26.084Z,59.25
2018-02-19T03:42:36.043Z,63.00
2018-02-19T03:45:08.327Z,63.50
2018-02-19T03:47:39.605Z,63.00
2018-02-19T03:53:06.812Z,65.50
2018-02-19T03:55:37.346Z,60.00
2018-02-19T04:01:12.765Z,65.50
2018-02-19T04:03:43.409Z,61.75
2018-02-19T04:06:14.225Z,62.50
2018-02-19T04:08:45.323Z,60.50
2018-02-19T04:11:16.251Z,66.25
2018-02-19T04:13:46.523Z,68.50
2018-02-19T04:16:17.294Z,62.50
2018-02-19T04:18:48.931Z,68.00
2018-02-19T04:21:19.520Z,61.00
2018-02-19T04:23:50.974Z,65.25
2018-02-19T04:26:21.910Z,61.00
2018-02-19T04:28:52.229Z,63.50
2018-02-19T04:31:22.942Z,65.50
2018-02-19T04:33:53.339Z,61.00
2018-02-19T04:36:23.958Z,61.75
2018-02-19T04:38:54.690Z,63.50
2018-02-19T04:41:25.270Z,56.50
2018-02-19T04:43:56.596Z,58.50
2018-02-19T04:46:27.839Z,63.25
2018-02-19T04:48:58.217Z,59.00
2018-02-19T04:51:28.608Z,63.00
2018-02-19T04:56:45.141Z,54.25
2018-02-19T04:59:15.838Z,65.00
2018-02-19T05:01:47.836Z,64.75
2018-02-19T05:04:19.729Z,60.75
2018-02-19T05:06:50.930Z,61.75
2018-02-19T05:09:25.254Z,60.75
2018-02-19T05:12:01.083Z,62.50
2018-02-19T05:14:32.449Z,59.75
2018-02-19T05:17:02.823Z,56.00
2018-02-19T05:19:34.182Z,61.25
2018-02-19T05:22:05.154Z,63.00
2018-02-19T05:24:35.841Z,56.00
2018-02-19T05:27:06.912Z,65.25
2018-02-19T05:29:37.633Z,56.50
2018-02-19T05:32:08.290Z,55.50
2018-02-19T05:34:39.265Z,58.00
2018-02-19T05:37:10.478Z,56.75
2018-02-19T05:39:42.576Z,59.00
2018-02-19T05:42:13.771Z,57.00
2018-02-19T05:44:43.952Z,55.00
2018-02-19T05:47:14.951Z,55.75
2018-02-19T05:49:52.055Z,59.00
2018-02-19T05:52:26.661Z,56.75
2018-02-19T05:54:59.009Z,59.75
2018-02-19T05:57:34.079Z,57.00
2018-02-19T06:00:14.521Z,56.50
2018-02-19T06:02:46.216Z,57.00
2018-02-19T06:05:22.427Z,57.00
2018-02-19T06:07:54.037Z,51.75
2018-02-19T06:10:24.721Z,62.75
2018-02-19T06:12:57.891Z,57.25
2018-02-19T06:15:28.333Z,51.50
2018-02-19T06:18:02.673Z,49.75
2018-02-19T06:20:57.099Z,56.25
2018-02-19T06:23:30.071Z,51.75
2018-02-19T06:26:06.537Z,60.75
2018-02-19T06:28:55.981Z,52.25
2018-02-19T06:31:59.998Z,52.50
2018-02-19T06:34:32.611Z,53.25
2018-02-19T06:37:07.974Z,50.75
2018-02-19T06:39:42.546Z,59.50
2018-02-19T06:42:15.655Z,54.00
2018-02-19T06:45:07.763Z,50.75
2018-02-19T06:47:43.048Z,54.50
2018-02-19T06:50:16.961Z,52.75
2018-02-19T06:52:48.933Z,56.25
2018-02-19T06:55:19.468Z,54.75
2018-02-19T06:57:52.681Z,55.75
2018-02-19T07:00:23.866Z,52.50
2018-02-19T07:02:55.545Z,50.00
2018-02-19T07:05:28.860Z,55.75
2018-02-19T07:08:03.095Z,54.00
2018-02-19T07:10:34.763Z,54.00
2018-02-19T07:13:13.722Z,51.50
2018-02-19T07:15:52.416Z,55.75
2018-02-19T07:18:27.297Z,58.25
2018-02-19T07:21:03.198Z,48.75
2018-02-19T07:23:35.997Z,50.00
2018-02-19T07:26:10.966Z,58.00
2018-02-19T07:28:50.986Z,54.25
2018-02-19T07:32:04.896Z,54.00
2018-02-19T07:34:49.855Z,55.25
2018-02-19T07:37:23.920Z,53.75
2018-02-19T07:39:56.625Z,53.50
2018-02-19T07:42:29.476Z,54.50
2018-02-19T07:45:04.028Z,58.00
2018-02-19T07:47:35.357Z,52.00
2018-02-19T07:50:08.971Z,53.25
2018-02-19T07:52:41.974Z,55.00
2018-02-19T07:55:13.512Z,54.50
2018-02-19T07:57:50.186Z,50.00
2018-02-19T08:00:27.158Z,52.50
2018-02-19T08:03:01.014Z,56.00
2018-02-19T08:05:44.239Z,51.75
2018-02-19T08:08:17.425Z,51.25
2018-02-19T08:10:53.838Z,57.50
2018-02-19T08:13:24.186Z,41.25
2018-02-19T08:19:04.781Z,52.75
2018-02-19T08:21:39.323Z,58.75
2018-02-19T08:24:18.595Z,46.50
2018-02-19T08:26:55.046Z,43.25
2018-02-19T08:29:35.906Z,48.50
2018-02-19T08:32:11.789Z,50.00
2018-02-19T08:34:45.935Z,45.50
2018-02-19T08:37:28.359Z,52.00
2018-02-19T08:40:00.807Z,51.00
2018-02-19T08:42:38.117Z,50.75
2018-02-19T08:45:17.660Z,47.25
2018-02-19T08:47:53.270Z,48.25
2018-02-19T08:50:27.016Z,53.25
2018-02-19T08:52:59.050Z,41.00
2018-02-19T08:55:53.425Z,42.75
2018-02-19T08:58:29.978Z,40.75
2018-02-19T09:01:22.479Z,45.50
2018-02-19T09:03:56.524Z,48.25
2018-02-19T09:08:53.852Z,49.25
2018-02-19T09:11:30.917Z,49.00
2018-02-19T09:14:02.830Z,46.00
2018-02-19T09:16:37.836Z,47.25
2018-02-19T09:19:16.615Z,50.25
2018-02-19T09:21:50.775Z,53.75
2018-02-19T09:24:26.404Z,46.00
2018-02-19T09:27:02.309Z,42.25
2018-02-19T09:29:43.090Z,44.50
2018-02-19T09:32:25.426Z,49.00
2018-02-19T09:35:02.171Z,46.25
2018-02-19T09:37:39.373Z,53.25
2018-02-19T09:40:14.327Z,44.75
2018-02-19T09:42:52.284Z,39.75
2018-02-19T09:45:30.119Z,43.25
2018-02-19T09:48:05.625Z,42.00
2018-02-19T09:53:29.643Z,45.50
2018-02-19T09:56:01.562Z,38.00
2018-02-19T09:58:40.932Z,43.50
2018-02-19T10:01:15.018Z,44.75
2018-02-19T10:03:48.733Z,41.25
2018-02-19T10:06:24.799Z,42.50
2018-02-19T10:09:06.454Z,43.00
2018-02-19T10:11:38.574Z,50.75
2018-02-19T10:14:18.141Z,43.25
2018-02-19T10:16:53.188Z,46.50
2018-02-19T10:19:27.340Z,45.00
2018-02-19T10:22:03.674Z,46.50
2018-02-19T10:24:36.386Z,48.25
2018-02-19T10:27:11.514Z,43.00
2018-02-19T10:29:42.481Z,41.00
2018-02-19T10:32:30.827Z,45.75
2018-02-19T10:35:02.124Z,41.75
2018-02-19T10:37:39.021Z,42.00
2018-02-19T10:40:14.966Z,46.00
2018-02-19T10:42:45.893Z,44.50
2018-02-19T10:45:22.238Z,47.00
2018-02-19T10:48:09.403Z,47.75
2018-02-19T10:50:43.934Z,40.00
2018-02-19T10:53:15.782Z,42.50
2018-02-19T10:55:46.878Z,43.00
2018-02-19T10:58:21.374Z,48.25
2018-02-19T11:01:19.450Z,41.50
2018-02-19T11:04:02.844Z,44.50
2018-02-19T11:06:40.545Z,50.25
2018-02-19T11:09:11.624Z,41.25
2018-02-19T11:11:42.698Z,44.25
2018-02-19T11:14:28.366Z,40.00
2018-02-19T11:17:14.077Z,50.00
2018-02-19T11:22:45.915Z,39.00
2018-02-19T11:25:16.642Z,49.00
2018-02-19T11:27:49.796Z,50.25
2018-02-19T11:33:21.949Z,46.50
2018-02-19T11:36:10.207Z,32.75
2018-02-19T11:38:41.807Z,44.75
2018-02-19T11:41:19.761Z,46.00
2018-02-19T11:43:54.244Z,41.75
2018-02-19T11:46:27.824Z,40.25
2018-02-19T11:48:59.457Z,41.75
2018-02-19T11:51:31.197Z,43.50
2018-02-19T11:54:03.800Z,45.25
2018-02-19T11:56:36.171Z,41.25
2018-02-19T11:59:18.553Z,39.50
2018-02-19T12:01:49.809Z,34.50
2018-02-19T12:04:21.082Z,38.25
2018-02-19T12:06:57.745Z,35.00
2018-02-19T12:09:29.314Z,39.75
2018-02-19T12:12:03.291Z,45.00
2018-02-19T12:14:36.508Z,37.75
2018-02-19T12:17:09.830Z,38.50
2018-02-19T12:19:41.801Z,41.00
2018-02-19T12:22:14.595Z,36.00
2018-02-19T12:24:49.804Z,33.00
2018-02-19T12:27:26.452Z,35.50
2018-02-19T12:29:57.791Z,37.50
2018-02-19T12:32:29.628Z,41.75
2018-02-19T12:35:01.001Z,46.50
2018-02-19T12:37:33.965Z,42.75
2018-02-19T12:40:17.365Z,39.75
2018-02-19T12:42:50.497Z,41.25
2018-02-19T12:45:22.986Z,44.50
2018-02-19T12:48:05.129Z,41.50
2018-02-19T12:50:48.866Z,40.50
2018-02-19T12:53:24.633Z,44.50
2018-02-19T12:56:09.571Z,38.75
2018-02-19T12:58:46.066Z,40.50
2018-02-19T13:01:22.811Z,34.75
2018-02-19T13:03:59.105Z,44.25
2018-02-19T13:06:30.766Z,45.75
2018-02-19T13:09:02.788Z,41.00
2018-02-19T13:13:59.185Z,42.50
2018-02-19T13:16:40.727Z,40.75
2018-02-19T13:19:14.852Z,39.25
2018-02-19T13:21:47.354Z,41.50
2018-02-19T13:26:50.968Z,43.50
2018-02-19T13:29:23.598Z,41.50
2018-02-19T13:32:20.856Z,42.00
2018-02-19T13:34:51.636Z,46.00
2018-02-19T13:37:22.937Z,44.50
2018-02-19T13:39:53.706Z,35.25
2018-02-19T13:42:26.920Z,35.25
2018-02-19T13:45:06.658Z,42.25
2018-02-19T13:47:39.387Z,43.00
2018-02-19T13:50:10.664Z,39.25
2018-02-19T13:52:41.549Z,35.50
2018-02-19T13:55:13.638Z,42.25
2018-02-19T13:57:45.979Z,47.25
2018-02-19T14:00:20.297Z,42.50
2018-02-19T14:02:56.714Z,47.50
2018-02-19T14:05:31.336Z,38.50
2018-02-19T14:08:08.269Z,36.75
2018-02-19T14:10:43.413Z,36.50
2018-02-19T14:13:18.417Z,35.50
2018-02-19T14:15:56.587Z,43.25
2018-02-19T14:18:29.002Z,38.75
2018-02-19T14:21:00.203Z,45.00
2018-02-19T14:23:34.615Z,39.75
2018-02-19T14:26:23.170Z,42.50
2018-02-19T14:28:56.760Z,40.50
2018-02-19T14:31:34.807Z,39.75
2018-02-19T14:34:10.405Z,40.75
2018-02-19T14:36:45.688Z,40.25
2018-02-19T14:39:20.885Z,59.00
2018-02-19T14:41:56.794Z,42.75
2018-02-19T14:44:30.240Z,38.00
2018-02-19T14:47:14.493Z,39.75
2018-02-19T14:49:49.146Z,42.75
2018-02-19T14:52:26.937Z,38.50
2018-02-19T14:55:15.513Z,43.50
2018-02-19T14:57:50.913Z,42.50
2018-02-19T15:00:25.020Z,39.75
2018-02-19T15:02:56.682Z,40.75
2018-02-19T15:05:31.195Z,39.00
2018-02-19T15:08:07.725Z,36.50
2018-02-19T15:10:40.872Z,38.75
2018-02-19T15:13:14.463Z,36.75
2018-02-19T15:15:49.853Z,41.50
2018-02-19T15:18:23.821Z,39.50
2018-02-19T15:20:54.759Z,40.00
2018-02-19T15:23:27.487Z,34.75
2018-02-19T15:26:00.556Z,38.50
2018-02-19T15:28:46.795Z,46.00
2018-02-19T15:31:21.548Z,41.75
2018-02-19T15:33:56.285Z,42.75
2018-02-19T15:36:29.147Z,36.25
2018-02-19T15:39:04.013Z,42.00
2018-02-19T15:41:35.566Z,39.00
2018-02-19T15:44:20.089Z,40.25
2018-02-19T15:49:37.954Z,38.25
2018-02-19T15:52:11.283Z,40.00
2018-02-19T15:54:43.949Z,36.50
2018-02-19T15:57:23.874Z,40.00
2018-02-19T15:59:59.182Z,39.50
2018-02-19T16:02:31.896Z,41.50
2018-02-19T16:05:08.742Z,42.00
2018-02-19T16:07:42.473Z,40.50
2018-02-19T16:10:23.982Z,42.75
2018-02-19T16:12:58.971Z,36.25
2018-02-19T16:15:36.329Z,45.25
2018-02-19T16:18:12.376Z,39.50
2018-02-19T16:20:48.043Z,38.50
2018-02-19T16:23:24.756Z,41.25
2018-02-19T16:26:15.930Z,39.25
2018-02-19T16:28:52.664Z,40.75
2018-02-19T16:31:26.818Z,41.75
2018-02-19T16:34:01.961Z,47.00
2018-02-19T16:36:36.601Z,46.75
2018-02-19T16:39:17.024Z,42.50
2018-02-19T16:41:53.416Z,44.50
2018-02-19T16:44:30.183Z,41.00
2018-02-19T16:47:09.920Z,38.00
2018-02-19T16:49:51.998Z,39.50
2018-02-19T16:52:28.576Z,41.25
2018-02-19T16:55:03.808Z,42.25
2018-02-19T16:57:37.078Z,53.75
2018-02-19T17:02:48.536Z,49.50
2018-02-19T17:05:28.745Z,42.50
2018-02-19T17:08:01.590Z,45.50
2018-02-19T17:10:35.431Z,47.50
2018-02-19T17:13:10.893Z,43.00
2018-02-19T17:15:46.801Z,49.50
2018-02-19T17:18:36.790Z,46.50
2018-02-19T17:21:11.736Z,49.00
2018-02-19T17:23:49.421Z,50.25
2018-02-19T17:26:26.353Z,50.25
2018-02-19T17:29:01.914Z,50.00
2018-02-19T17:31:37.513Z,46.75
2018-02-19T17:34:12.186Z,45.50
2018-02-19T17:36:53.802Z,48.00
2018-02-19T17:39:39.452Z,48.00
2018-02-19T17:42:15.926Z,48.00
2018-02-19T17:44:51.443Z,48.25
2018-02-19T17:47:31.816Z,43.50
2018-02-19T17:50:08.482Z,42.25
2018-02-19T17:52:47.496Z,49.00
2018-02-19T17:55:25.314Z,47.25
2018-02-19T17:58:01.332Z,45.75
2018-02-19T18:00:43.124Z,47.25
2018-02-19T18:03:20.245Z,50.25
2018-02-19T18:05:57.624Z,51.25
2018-02-19T18:08:36.480Z,47.25
2018-02-19T18:11:12.566Z,45.00
2018-02-19T18:13:54.368Z,43.25
2018-02-19T18:16:29.727Z,48.75
2018-02-19T18:19:09.902Z,49.00
2018-02-19T18:21:46.479Z,48.25
2018-02-19T18:24:32.988Z,46.50
2018-02-19T18:27:18.836Z,49.25
2018-02-19T18:29:56.418Z,47.75
2018-02-19T18:32:34.475Z,50.75
2018-02-19T18:35:11.752Z,50.75
2018-02-19T18:37:47.879Z,50.50
2018-02-19T18:40:25.577Z,48.00
2018-02-19T18:43:02.648Z,48.25
2018-02-19T18:45:42.604Z,46.00
2018-02-19T18:48:22.775Z,41.75
2018-02-19T18:51:01.767Z,44.75
2018-02-19T18:53:39.911Z,42.75
2018-02-19T18:56:17.140Z,49.50
2018-02-19T18:59:00.820Z,44.25
2018-02-19T19:01:38.751Z,51.00
2018-02-19T19:04:14.602Z,48.25
2018-02-19T19:06:50.194Z,49.75
2018-02-19T19:09:34.788Z,50.00
2018-02-19T19:12:09.566Z,45.75
2018-02-19T19:14:46.010Z,50.50
2018-02-19T19:17:26.520Z,47.00
2018-02-19T19:20:03.982Z,49.50
2018-02-19T19:22:40.816Z,49.50
2018-02-19T19:25:17.155Z,49.25
2018-02-19T19:27:54.018Z,49.75
2018-02-19T19:30:32.502Z,49.50
2018-02-19T19:33:12.599Z,48.50
2018-02-19T19:35:50.898Z,48.25
2018-02-19T19:38:28.625Z,50.00
2018-02-19T19:41:06.521Z,51.00
2018-02-19T19:43:46.967Z,47.25
2018-02-19T19:49:22.214Z,50.25
2018-02-19T19:51:58.903Z,53.25
2018-02-19T19:57:18.318Z,50.00
2018-02-19T19:59:53.750Z,46.75
2018-02-19T20:02:31.065Z,48.50
2018-02-19T20:05:09.552Z,47.25
2018-02-19T20:07:54.637Z,51.50
2018-02-19T20:10:31.731Z,49.50
2018-02-19T20:13:06.607Z,51.25
2018-02-19T20:15:50.178Z,49.50
2018-02-19T20:18:25.804Z,49.75
2018-02-19T20:21:06.724Z,51.25
2018-02-19T20:23:48.212Z,53.00
2018-02-19T20:26:25.616Z,55.25
2018-02-19T20:29:01.960Z,52.75
2018-02-19T20:31:37.795Z,50.25
2018-02-19T20:34:15.363Z,47.25
2018-02-19T20:36:58.096Z,49.50
2018-02-19T20:39:51.465Z,53.00
2018-02-19T20:42:36.475Z,51.75
2018-02-19T20:45:19.922Z,50.75
2018-02-19T20:47:53.053Z,54.00
2018-02-19T20:50:28.163Z,49.00
2018-02-19T20:53:04.066Z,48.75
2018-02-19T20:55:41.049Z,53.25
2018-02-19T20:58:16.697Z,47.75
2018-02-19T21:00:52.013Z,47.00
2018-02-19T21:03:26.646Z,51.50
2018-02-19T21:06:03.282Z,55.50
2018-02-19T21:08:37.505Z,58.75
2018-02-19T21:11:11.454Z,62.00
2018-02-19T21:13:47.303Z,54.00
2018-02-19T21:16:24.225Z,56.50
2018-02-19T21:18:58.511Z,54.25
2018-02-19T21:21:33.640Z,53.25
2018-02-19T21:24:07.489Z,51.00
2018-02-19T21:26:43.611Z,49.00
2018-02-19T21:29:16.425Z,49.50
2018-02-19T21:31:50.300Z,53.00
2018-02-19T21:34:24.986Z,44.75
2018-02-19T21:36:56.552Z,43.75
2018-02-19T21:39:29.220Z,49.75
2018-02-19T21:42:05.314Z,42.00
2018-02-19T21:44:37.003Z,49.00
2018-02-19T21:47:09.300Z,49.25
2018-02-19T21:49:44.505Z,52.75
2018-02-19T21:52:15.553Z,47.25
2018-02-19T21:54:51.316Z,49.50
2018-02-19T21:57:22.976Z,51.25
2018-02-19T21:59:53.786Z,50.00
2018-02-19T22:02:24.661Z,48.75
2018-02-19T22:04:55.752Z,47.75
2018-02-19T22:07:26.502Z,49.75
2018-02-19T22:09:58.951Z,55.00
2018-02-19T22:12:35.032Z,50.75
2018-02-19T22:15:14.171Z,53.25
2018-02-19T22:17:46.656Z,58.50
2018-02-19T22:20:18.224Z,52.75
2018-02-19T22:22:49.453Z,53.50
2018-02-19T22:25:21.627Z,53.75
2018-02-19T22:27:56.147Z,58.00
2018-02-19T22:30:29.776Z,55.75
2018-02-19T22:33:00.892Z,54.75
2018-02-19T22:35:32.276Z,51.50
2018-02-19T22:38:03.733Z,54.25
2018-02-19T22:40:35.175Z,53.50
2018-02-19T22:43:05.835Z,54.25
2018-02-19T22:45:43.357Z,51.00
2018-02-19T22:48:14.714Z,55.50
2018-02-19T22:50:46.547Z,53.00
2018-02-19T22:53:17.392Z,52.75
2018-02-19T22:55:47.891Z,52.50
2018-02-19T22:58:18.547Z,53.00
2018-02-19T23:00:50.863Z,55.25
2018-02-19T23:03:21.766Z,53.00
2018-02-19T23:05:53.473Z,55.25
2018-02-19T23:08:24.492Z,51.25
2018-02-19T23:10:57.695Z,53.25
2018-02-19T23:13:28.273Z,52.75
2018-02-19T23:15:59.340Z,57.50
2018-02-19T23:18:30.544Z,52.75
2018-02-19T23:21:01.227Z,60.50
2018-02-19T23:23:31.790Z,52.25
2018-02-19T23:26:02.342Z,55.25
2018-02-19T23:28:33.801Z,54.25
2018-02-19T23:31:05.725Z,54.75
2018-02-19T23:33:36.458Z,57.50
2018-02-19T23:36:07.808Z,54.25
2018-02-19T23:38:38.830Z,58.00
2018-02-19T23:41:09.319Z,56.25
2018-02-19T23:43:41.526Z,56.00
2018-02-19T23:46:13.097Z,54.25
2018-02-19T23:48:44.624Z,55.25
2018-02-19T23:51:15.446Z,58.75
2018-02-19T23:53:56.213Z,59.00
2018-02-19T23:56:27.320Z,56.00
2018-02-19T23:58:58.072Z,57.00
